Terminal Aerodrome Forecast
Issued by NWS

Home | Current Version | Previous Version | Text Only | Print | Product List | Glossary On
Versions: 1 2 3 4 5 6 7 8 9 10 11 12 13
000
FTUS45 KPSR 271720
TAFIPL
TAF
KIPL 271720Z 2718/2818 34008KT P6SM BKN250
     FM280200 26011KT P6SM SCT250
      TEMPO 2803/2805 26013G25KT
     FM281500 35012G21KT P6SM FEW250=

USA.gov is the U.S. government's official web portal to all federal, state and local government web resources and services.